LFGJ/DLE METAR and TAF weather

Enter ICAO airport designator
Station Type Date Time Source
LFGJ METAR 2021/09/25 13:30 UTC NOAA

LFGJ 251330Z AUTO 20017KT 6000 NSC 25/15 Q1015 TEMPO FEW060TCU


Station Type Date Time Source
LFGJ Decoded METAR 2021/09/25 13:30 UTC NOAA

Dole Tavaux, France (LFGJ) 47-02-34N 005-26-06E
Sep 25, 2021 - 09:30 AM EDT / 2021.09.25 1330 UTC
Wind: from the SSW (200 degrees) at 20 MPH (17 KT):0
Visibility: 3 mile(s):0
Weather: Towering cumulus clouds observed
Temperature: 77 F (25 C)
Dew Point: 59 F (15 C)
Relative Humidity: 53%
Pressure (altimeter): 29.97 in. Hg (1015 hPa)
ob: LFGJ 251330Z AUTO 20017KT 6000 NSC 25/15 Q1015 TEMPO FEW060TCU
cycle: 13

Station Type Date Time Source
LFGJ TAF 2020/06/22 09:21 UTC NOAA

TAF LFGJ 220800Z 2209/2221 01008KT 9999 FEW035 BKN053
BECMG 2212/2215 CAVOK

Example: see airport list